METAR Data
IDs: Format: Raw Decoded Include TAF

Data at: 2047 UTC 14 Dec 2018

KGKY 141953Z AUTO 32016G24KT 10SM OVC013 07/06 A2998 RMK AO2 PK WND 32028/1915 SLP152 T00720056
KGKY 141853Z AUTO 30015G22KT 10SM OVC013 07/06 A2998 RMK AO2 PK WND 31028/1814 RAE27 SLP152 P0001 T00670056
KGKY 141753Z AUTO 31020G27KT 10SM -RA OVC013 07/05 A3000 RMK AO2 PK WND 30027/1753 RAB13 SLP157 P0000 60000 T00670050 10067 20056 50008
KGKY 141732Z AUTO 32017G25KT 10SM -RA OVC014 07/05 A3000 RMK AO2 RAB13 P0000 T00670050
KGKY 141711Z AUTO 31017G24KT 10SM OVC015 07/04 A3001 RMK AO2 T00670044
KGKY 141653Z AUTO 31017G24KT 10SM OVC014 07/04 A3001 RMK AO2 SLP160 T00670044
KGKY 141553Z AUTO 32017KT 10SM OVC014 06/04 A3000 RMK AO2 PK WND 32027/1517 SLP157 T00610044
KGKY 141453Z AUTO 32015G23KT 10SM OVC012 06/05 A2997 RMK AO2 PK WND 32026/1407 RAE15 SLP149 P0000 60000 T00610050 51015
KGKY 141436Z AUTO 32016G25KT 10SM OVC011 06/05 A2997 RMK AO2 PK WND 32026/1407 RAE15 P0000 T00560050
KGKY 141353Z AUTO 31018G25KT 4SM -RA BR OVC009 06/05 A2996 RMK AO2 RAE17B49 CIG 006V012 SLP143 P0000 T00560050
KGKY 141348Z AUTO 31016G19KT 6SM BR OVC009 06/05 A2995 RMK AO2 RAE17 CIG 007V012 P0000
KGKY 141253Z AUTO 32019G26KT 5SM -RA BR OVC010 06/06 A2993 RMK AO2 PK WND 32026/1247 RAE12B49 CIG 006V013 SLP134 P0000 T00610056
KGKY 141201Z AUTO 32016G25KT 5SM -RA BR BKN010 OVC015 07/06 A2989 RMK AO2 CIG 007V012 P0000 T00670061
KGKY 141153Z AUTO 32019G25KT 5SM -RA BR BKN008 OVC013 07/06 A2990 RMK AO2 RAB23 CIG 006V011 SLP122 P0000 60000 70002 T00670061 10078 20067 53014
KGKY 141129Z AUTO 32016G23KT 5SM -RA BR BKN008 OVC013 07/06 A2988 RMK AO2 RAB23 CIG 006V011 P0000 T00670061
KGKY 141053Z AUTO 32017G23KT 10SM OVC011 07/06 A2987 RMK AO2 PK WND 31028/1027 SLP114 T00720061
KGKY 141045Z AUTO 32015G27KT 10SM OVC011 07/06 A2987 RMK AO2 PK WND 31028/1027 CIG 008V015 T00720056
KGKY 141031Z AUTO 32015G28KT 10SM OVC009 07/06 A2986 RMK AO2 PK WND 31028/1027 CIG 008V011 T00720061
KGKY 140953Z AUTO 31013G21KT 10SM BKN011 OVC015 07/06 A2985 RMK AO2 CIG 008V012 SLP107 T00720061
KGKY 140950Z AUTO 31014G21KT 10SM BKN011 OVC016 07/06 A2985 RMK AO2 CIG 008V013
KGKY 140853Z AUTO 31015G20KT 10SM OVC009 07/06 A2984 RMK AO2 CIG 007V013 SLP101 T00720061 51010
KGKY 140831Z AUTO 32015G22KT 10SM OVC009 07/06 A2984 RMK AO2 CIG 008V014 T00720061
KGKY 140753Z AUTO 33014KT 10SM OVC012 07/07 A2983 RMK AO2 PK WND 33027/0704 SLP098 T00720067
KGKY 140653Z AUTO 33016G25KT 10SM OVC012 08/07 A2982 RMK AO2 PK WND 34026/0626 SLP096 T00780067
KGKY 140553Z AUTO 34017G22KT 10SM OVC010 08/07 A2981 RMK AO2 SLP091 60000 T00780067 10094 20078 401890078 53010
KGKY 140453Z AUTO 34012KT 10SM OVC010 08/07 A2980 RMK AO2 CIG 007V013 SLP088 T00780072
KGKY 140353Z AUTO 33017KT 10SM OVC010 08/07 A2978 RMK AO2 SLP080 T00830067
KGKY 140253Z AUTO 34012KT 10SM OVC012 08/06 A2978 RMK AO2 SLP081 60000 T00830061 51014
KGKY 140153Z 34014KT 10SM OVC014 08/06 A2978 RMK AO2 SLP080 T00830061
KGKY 140053Z 32011KT 10SM OVC014 08/06 A2977 RMK AO2 RAE2354 SLP077 P0000 T00830061
KGKY 132353Z 33013KT 10SM -RA OVC014 09/07 A2974 RMK AO2 RAB35 PRESFR SLP066 P0000 60000 T00940072 10189 20094 51034
KGKY 132300Z 31010KT 10SM OVC014 10/07 A2973 RMK AO2 T01000072
KGKY 132253Z 31011KT 10SM BKN015 OVC040 10/08 A2972 RMK AO2 SLP061 T01000078
KGKY 132235Z 32013KT 10SM SCT013 BKN035 OVC043 11/08 A2971 RMK AO2 T01060078
KGKY 132153Z 29010KT 10SM OVC012 12/09 A2969 RMK AO2 PK WND 30028/2118 WSHFT 2110 SLP051 T01170094
KGKY 132137Z 29017G21KT 10SM BKN013 BKN021 OVC039 12/09 A2968 RMK AO2 PK WND 30028/2118 WSHFT 2110 PRESRR T01220094
KGKY 132130Z 29013G21KT 10SM FEW013 BKN031 OVC039 12/09 A2967 RMK AO2 PK WND 30028/2118 WSHFT 2110 T01220094
KGKY 132053Z 23009G15KT 10SM BKN031 17/12 A2963 RMK AO2 SLP029 T01720117 55007
KGKY 131953Z 25009G17KT 10SM FEW030 BKN038 OVC110 17/12 A2962 RMK AO2 LTG DSNT NE AND E SLP026 T01720117
KGKY 131853Z 22007KT 10SM FEW029 BKN034 OVC085 19/13 A2964 RMK AO2 LTG DSNT NE SLP032 T01890128
KGKY 131814Z VRB05KT 10SM FEW019 BKN037 OVC045 19/14 A2965 RMK AO2 T01890139
KGKY 131807Z 17006KT 10SM BKN021 BKN033 OVC044 19/14 A2966 RMK AO2 T01890139
KGKY 131753Z 17007KT 10SM FEW019 BKN036 OVC044 18/14 A2966 RMK AO2 SLP037 60002 T01830144 10189 20161 58013
KGKY 131703Z 18009KT 10SM SCT014 BKN022 BKN034 18/16 A2968 RMK AO2 T01830156
KGKY 131653Z 17007KT 10SM SCT013 BKN037 18/16 A2969 RMK AO2 SLP047 T01830161
KGKY 131625Z 16010KT 10SM SCT010 18/16 A2968 RMK AO2 T01780161
KGKY 131610Z 17010KT 10SM BKN012 BKN110 17/16 A2969 RMK AO2 T01720161
KGKY 131558Z 17009KT 10SM FEW008 SCT012 BKN017 17/16 A2969 RMK AO2 T01720161
KGKY 131553Z 17010KT 10SM BKN012 BKN018 BKN110 17/16 A2969 RMK AO2 SLP049 T01720161
KGKY 131539Z 17011G20KT 10SM SCT008 BKN012 BKN018 18/16 A2969 RMK AO2 T01780161
KGKY 131531Z 17008KT 10SM BKN008 BKN100 BKN120 17/17 A2970 RMK AO2 CIG 007V013 T01720167
KGKY 131524Z 17010KT 10SM SCT008 BKN012 BKN095 17/17 A2970 RMK AO2 T01720167
KGKY 131513Z 13008KT 10SM SCT010 BKN095 BKN120 17/17 A2969 RMK AO2 T01670167
KGKY 131504Z 15009KT 10SM BKN010 BKN035 BKN100 17/16 A2969 RMK AO2 T01670161
KGKY 131453Z 14010KT 10SM SCT014 BKN031 BKN075 16/16 A2969 RMK AO2 RAE21B34E53 SLP050 P0002 60002 T01610161 50005
KGKY 131427Z 16007KT 10SM FEW008 SCT019 BKN090 17/16 A2970 RMK AO2 RAE21 P0002 T01670161 $
KGKY 131411Z 15007KT 8SM VCTS -RA FEW006 BKN031 OVC090 16/16 A2970 RMK AO2 P0002 T01610161 $
KGKY 131400Z 15008KT 7SM -RA FEW006 BKN021 OVC095 16/16 A2969 RMK AO2 CIG 013V029 P0001 T01610161 $
KGKY 131353Z 14005KT 9SM -RA BKN019 BKN080 OVC100 16/16 A2970 RMK AO2 RAB39 CIG 009V026 SLP050 P0000 T01610161 $
KGKY 131312Z 15008KT 10SM FEW010 SCT018 BKN100 16/16 A2968 RMK AO2 LTG DSNT N T01610161 $
KGKY 131253Z 17004KT 10SM SCT005 BKN022 OVC100 16/16 A2968 RMK AO2 SLP044 T01610161 $
KGKY 131251Z 18003KT 10SM SCT005 BKN022 OVC100 16/16 A2968 RMK AO2 $
KGKY 131232Z AUTO 18006KT 7SM BKN005 BKN100 OVC120 16/16 A2967 RMK AO2 CIG 003V009 T01610161 $
KGKY 131216Z AUTO 14009KT 6SM BR SCT003 BKN100 OVC120 16/16 A2966 RMK AO2 T01560156 $
KGKY 131153Z AUTO 15006KT 7SM BKN100 BKN120 16/16 A2966 RMK AO2 SLP039 60000 T01560156 10167 20156 56020 $
KGKY 131123Z AUTO 17005KT 8SM SCT010 16/16 A2967 RMK AO2 T01560156 $
KGKY 131053Z AUTO 16005KT 9SM OVC010 16/16 A2967 RMK AO2 CIG 005V013 SLP041 T01610161 $
KGKY 131027Z AUTO 17009KT 9SM BKN006 OVC012 17/17 A2967 RMK AO2 CIG 003V008 T01670167 $
KGKY 130953Z AUTO 17006KT 7SM OVC004 17/17 A2969 RMK AO2 SLP050 T01670167 $
KGKY 130942Z AUTO 18005KT 8SM OVC004 17/17 A2970 RMK AO2 T01670167 $
KGKY 130853Z AUTO 16010KT 7SM OVC007 17/17 A2972 RMK AO2 CIG 005V010 SLP060 60000 T01670167 58015 $